Aérodrome :
LOGIN :

S'inscrire | Disclaimer

   EN    FR    IT 

 










Légende :    VFR   VFR Marginal   IFR   IFR Intensif   IFR Très Intensif
Visi : 
Plafond : 
>= 8 km
>= 3000ft
5 à 8 km
1000 à 3000 ft
1500m à 5 km
500 à 1000 ft
800 à 1500m
200 à 500 ft
< 800m
< 200 ft
Symboles :   Orages  Brouillard  Fortes neiges  Fortes précipitations  Vent > 20 kt
SIGMETs :   Divers  Orages  Givrage  Turbulence  Onde Orograph.  Cendres Volcan.






- Altitude de l'aérodrome : 33 ft
- Code IATA : MHZ


EGUN - RAF Mildenhall

DERNIER METAR :
  • 020655Z 24007KT 9999 FEW030 BKN040 05/03 A2998 RMK AO2A SLP152 WND DATA ESTMD ALSTG/SLP ESTMD RVRNO

METARs EXPIRÉS :
  • 020555Z 23005KT 9999 OVC037 04/03 A2999 RMK AO2A SLP154 WND DATA ESTMD ALSTG/SLP ESTMD RVRNO
  • 020455Z 23004KT 9999 FEW025 BKN039 04/02 A3000 RMK AO2A SLP158 WND DATA ESTMD ALSTG/SLP ESTMD RVRNO

TAF TAF EGUN
Valide du 02 à 04h jusqu'au 03 à 10h UTC


020400Z 0204/0310 27009KT 9999 BKN040 QNH2997INS
BECMG 0207/0208 28012G20KT 9999 BKN050 QNH2986INS
BECMG 0217/0218 30009KT 9999 BKN040 QNH2987INS
BECMG 0307/0308 31012KT 9999 SCT050 QNH3004INS TX12/0212Z TN01/0205Z



MET'MAP, la Météo Aéronautique d'un coup d'oeil ! - Copyright ORBIFLY Décembre 2007 - Disclaimer

ORBIFLY MET'MAP TEAM :

Programmation & Développement : Alexandra Zaïnal
Sur une idée originale de : Baudouin d'Aumeries
Assistance à la programmation : Marc-Olivier Méhu
Soutien technique & logistique : Manuel Goepfert

Contact : metmap@orbifly.com




SOURCES & CREDITS :

   NOAA